sensor_id;sensor_type;location;lat;lon;timestamp;temperature;humidity
36134;DHT22;40492;43.524;-1.510;2022-08-03T00:01:40;23.50;99.90
36134;DHT22;40492;43.524;-1.510;2022-08-03T00:04:06;23.50;99.90
36134;DHT22;40492;43.524;-1.510;2022-08-03T00:06:32;23.50;99.90
36134;DHT22;40492;43.524;-1.510;2022-08-03T00:08:58;23.50;99.90
36134;DHT22;40492;43.524;-1.510;2022-08-03T00:11:24;23.50;99.90
36134;DHT22;40492;43.524;-1.510;2022-08-03T00:13:50;23.50;99.90
36134;DHT22;40492;43.524;-1.510;2022-08-03T00:16:16;23.50;99.90
36134;DHT22;40492;43.524;-1.510;2022-08-03T00:18:42;23.50;99.90
36134;DHT22;40492;43.524;-1.510;2022-08-03T00:21:08;23.50;99.90
36134;DHT22;40492;43.524;-1.510;2022-08-03T00:23:34;23.50;99.90
36134;DHT22;40492;43.524;-1.510;2022-08-03T00:26:00;23.40;99.90
36134;DHT22;40492;43.524;-1.510;2022-08-03T00:28:26;23.50;99.90
36134;DHT22;40492;43.524;-1.510;2022-08-03T00:30:52;23.40;99.90
36134;DHT22;40492;43.524;-1.510;2022-08-03T00:33:20;23.40;99.90
36134;DHT22;40492;43.524;-1.510;2022-08-03T00:35:46;23.40;99.90
36134;DHT22;40492;43.524;-1.510;2022-08-03T00:38:11;23.40;99.90
36134;DHT22;40492;43.524;-1.510;2022-08-03T00:40:37;23.40;99.90
36134;DHT22;40492;43.524;-1.510;2022-08-03T00:43:04;23.40;99.90
36134;DHT22;40492;43.524;-1.510;2022-08-03T00:45:31;23.40;99.90
36134;DHT22;40492;43.524;-1.510;2022-08-03T00:47:57;23.30;99.90
36134;DHT22;40492;43.524;-1.510;2022-08-03T00:50:23;23.30;99.90
36134;DHT22;40492;43.524;-1.510;2022-08-03T00:52:53;23.30;99.90
36134;DHT22;40492;43.524;-1.510;2022-08-03T00:55:19;23.30;99.90
36134;DHT22;40492;43.524;-1.510;2022-08-03T00:57:45;23.30;99.90
36134;DHT22;40492;43.524;-1.510;2022-08-03T01:00:12;23.30;99.90
36134;DHT22;40492;43.524;-1.510;2022-08-03T01:02:38;23.30;99.90
36134;DHT22;40492;43.524;-1.510;2022-08-03T01:05:05;23.30;99.90
36134;DHT22;40492;43.524;-1.510;2022-08-03T01:10:23;23.40;99.90
36134;DHT22;40492;43.524;-1.510;2022-08-03T01:13:02;23.30;99.90
36134;DHT22;40492;43.524;-1.510;2022-08-03T01:17:59;23.30;99.90
36134;DHT22;40492;43.524;-1.510;2022-08-03T01:20:30;23.30;99.90
36134;DHT22;40492;43.524;-1.510;2022-08-03T01:23:05;23.30;99.90
36134;DHT22;40492;43.524;-1.510;2022-08-03T01:30:55;23.30;99.90
36134;DHT22;40492;43.524;-1.510;2022-08-03T01:33:27;23.30;99.90
36134;DHT22;40492;43.524;-1.510;2022-08-03T01:35:58;23.30;99.90
36134;DHT22;40492;43.524;-1.510;2022-08-03T01:38:31;23.30;99.90
36134;DHT22;40492;43.524;-1.510;2022-08-03T01:41:06;23.30;99.90
36134;DHT22;40492;43.524;-1.510;2022-08-03T01:43:33;23.30;99.90
36134;DHT22;40492;43.524;-1.510;2022-08-03T01:45:59;23.30;99.90
36134;DHT22;40492;43.524;-1.510;2022-08-03T01:48:26;23.20;99.90
36134;DHT22;40492;43.524;-1.510;2022-08-03T01:50:53;23.20;99.90
36134;DHT22;40492;43.524;-1.510;2022-08-03T01:53:20;23.20;99.90
36134;DHT22;40492;43.524;-1.510;2022-08-03T01:55:47;23.20;99.90
36134;DHT22;40492;43.524;-1.510;2022-08-03T01:58:14;23.10;99.90
36134;DHT22;40492;43.524;-1.510;2022-08-03T02:00:41;23.20;99.90
36134;DHT22;40492;43.524;-1.510;2022-08-03T02:03:07;23.20;99.90
36134;DHT22;40492;43.524;-1.510;2022-08-03T02:05:34;23.10;99.90
36134;DHT22;40492;43.524;-1.510;2022-08-03T02:08:01;23.10;99.90
36134;DHT22;40492;43.524;-1.510;2022-08-03T02:10:28;23.10;99.90
36134;DHT22;40492;43.524;-1.510;2022-08-03T02:12:54;23.10;99.90
36134;DHT22;40492;43.524;-1.510;2022-08-03T02:15:22;23.10;99.90
36134;DHT22;40492;43.524;-1.510;2022-08-03T02:17:48;23.10;99.90
36134;DHT22;40492;43.524;-1.510;2022-08-03T02:20:14;23.20;99.90
36134;DHT22;40492;43.524;-1.510;2022-08-03T02:22:41;23.20;99.90
36134;DHT22;40492;43.524;-1.510;2022-08-03T02:25:08;23.20;99.90
36134;DHT22;40492;43.524;-1.510;2022-08-03T02:27:34;23.10;99.90
36134;DHT22;40492;43.524;-1.510;2022-08-03T02:30:07;23.10;99.90
36134;DHT22;40492;43.524;-1.510;2022-08-03T02:32:34;23.10;99.90
36134;DHT22;40492;43.524;-1.510;2022-08-03T02:35:01;23.10;99.90
36134;DHT22;40492;43.524;-1.510;2022-08-03T02:37:30;23.10;99.90
36134;DHT22;40492;43.524;-1.510;2022-08-03T02:39:58;23.20;99.90
36134;DHT22;40492;43.524;-1.510;2022-08-03T02:42:25;23.10;99.90
36134;DHT22;40492;43.524;-1.510;2022-08-03T02:44:53;23.10;99.90
36134;DHT22;40492;43.524;-1.510;2022-08-03T02:47:19;23.10;99.90
36134;DHT22;40492;43.524;-1.510;2022-08-03T02:49:46;23.10;99.90
36134;DHT22;40492;43.524;-1.510;2022-08-03T02:52:12;23.10;99.90
36134;DHT22;40492;43.524;-1.510;2022-08-03T02:54:38;23.10;99.90
36134;DHT22;40492;43.524;-1.510;2022-08-03T02:57:06;23.10;99.90
36134;DHT22;40492;43.524;-1.510;2022-08-03T02:59:32;23.20;99.90
36134;DHT22;40492;43.524;-1.510;2022-08-03T03:01:59;23.20;99.90
36134;DHT22;40492;43.524;-1.510;2022-08-03T03:04:25;23.20;99.90
36134;DHT22;40492;43.524;-1.510;2022-08-03T03:06:52;23.20;99.90
36134;DHT22;40492;43.524;-1.510;2022-08-03T03:09:19;23.10;99.90
36134;DHT22;40492;43.524;-1.510;2022-08-03T03:11:45;23.10;99.90
36134;DHT22;40492;43.524;-1.510;2022-08-03T03:14:10;23.20;99.90
36134;DHT22;40492;43.524;-1.510;2022-08-03T03:16:38;23.20;99.90
36134;DHT22;40492;43.524;-1.510;2022-08-03T03:19:04;23.20;99.90
36134;DHT22;40492;43.524;-1.510;2022-08-03T03:21:32;23.30;99.90
36134;DHT22;40492;43.524;-1.510;2022-08-03T03:23:58;23.30;99.90
36134;DHT22;40492;43.524;-1.510;2022-08-03T03:26:24;23.40;99.90
36134;DHT22;40492;43.524;-1.510;2022-08-03T03:28:50;23.40;99.90
36134;DHT22;40492;43.524;-1.510;2022-08-03T03:31:16;23.40;99.90
36134;DHT22;40492;43.524;-1.510;2022-08-03T03:33:42;23.40;99.90
36134;DHT22;40492;43.524;-1.510;2022-08-03T03:36:08;23.40;99.90
36134;DHT22;40492;43.524;-1.510;2022-08-03T03:38:35;23.40;99.90
36134;DHT22;40492;43.524;-1.510;2022-08-03T03:41:01;23.40;99.90
36134;DHT22;40492;43.524;-1.510;2022-08-03T03:43:27;23.40;99.90
36134;DHT22;40492;43.524;-1.510;2022-08-03T03:45:53;23.40;99.90
36134;DHT22;40492;43.524;-1.510;2022-08-03T03:48:19;23.30;99.90
36134;DHT22;40492;43.524;-1.510;2022-08-03T03:50:45;23.40;99.90
36134;DHT22;40492;43.524;-1.510;2022-08-03T03:53:13;23.40;99.90
36134;DHT22;40492;43.524;-1.510;2022-08-03T03:55:39;23.40;99.90
36134;DHT22;40492;43.524;-1.510;2022-08-03T03:58:06;23.40;99.90
36134;DHT22;40492;43.524;-1.510;2022-08-03T04:00:32;23.40;99.90
36134;DHT22;40492;43.524;-1.510;2022-08-03T04:02:58;23.40;99.90
36134;DHT22;40492;43.524;-1.510;2022-08-03T04:05:24;23.40;99.90
36134;DHT22;40492;43.524;-1.510;2022-08-03T04:08:09;23.40;99.90
36134;DHT22;40492;43.524;-1.510;2022-08-03T04:13:41;23.40;99.90
36134;DHT22;40492;43.524;-1.510;2022-08-03T04:16:09;23.30;99.90
36134;DHT22;40492;43.524;-1.510;2022-08-03T04:18:37;23.30;99.90
36134;DHT22;40492;43.524;-1.510;2022-08-03T04:21:04;23.20;99.90
36134;DHT22;40492;43.524;-1.510;2022-08-03T04:23:32;23.20;99.90
36134;DHT22;40492;43.524;-1.510;2022-08-03T04:26:00;23.30;99.90
36134;DHT22;40492;43.524;-1.510;2022-08-03T04:28:26;23.30;99.90
36134;DHT22;40492;43.524;-1.510;2022-08-03T04:30:52;23.30;99.90
36134;DHT22;40492;43.524;-1.510;2022-08-03T04:33:20;23.30;99.90
36134;DHT22;40492;43.524;-1.510;2022-08-03T04:35:47;23.30;99.90
36134;DHT22;40492;43.524;-1.510;2022-08-03T04:38:14;23.30;99.90
36134;DHT22;40492;43.524;-1.510;2022-08-03T04:40:42;23.30;99.90
36134;DHT22;40492;43.524;-1.510;2022-08-03T04:43:10;23.20;99.90
36134;DHT22;40492;43.524;-1.510;2022-08-03T04:45:38;23.30;99.90
36134;DHT22;40492;43.524;-1.510;2022-08-03T04:48:04;23.30;99.90
36134;DHT22;40492;43.524;-1.510;2022-08-03T04:50:30;23.30;99.90
36134;DHT22;40492;43.524;-1.510;2022-08-03T04:52:56;23.40;99.90
36134;DHT22;40492;43.524;-1.510;2022-08-03T04:55:29;23.40;99.90
36134;DHT22;40492;43.524;-1.510;2022-08-03T04:57:55;23.40;99.90
36134;DHT22;40492;43.524;-1.510;2022-08-03T05:00:21;23.40;99.90
36134;DHT22;40492;43.524;-1.510;2022-08-03T05:02:47;23.40;99.90
36134;DHT22;40492;43.524;-1.510;2022-08-03T05:05:12;23.40;99.90
36134;DHT22;40492;43.524;-1.510;2022-08-03T05:07:40;23.30;99.90
36134;DHT22;40492;43.524;-1.510;2022-08-03T05:10:07;23.40;99.90
36134;DHT22;40492;43.524;-1.510;2022-08-03T05:12:33;23.40;99.90
36134;DHT22;40492;43.524;-1.510;2022-08-03T05:14:59;23.40;99.90
36134;DHT22;40492;43.524;-1.510;2022-08-03T05:17:25;23.50;99.90
36134;DHT22;40492;43.524;-1.510;2022-08-03T05:19:51;23.50;99.90
36134;DHT22;40492;43.524;-1.510;2022-08-03T05:22:16;23.60;99.90
36134;DHT22;40492;43.524;-1.510;2022-08-03T05:24:42;23.60;99.90
36134;DHT22;40492;43.524;-1.510;2022-08-03T05:27:08;23.60;99.90
36134;DHT22;40492;43.524;-1.510;2022-08-03T05:29:34;23.60;99.90
36134;DHT22;40492;43.524;-1.510;2022-08-03T05:31:59;23.70;99.90
36134;DHT22;40492;43.524;-1.510;2022-08-03T05:34:26;23.70;99.90
36134;DHT22;40492;43.524;-1.510;2022-08-03T05:36:52;23.80;99.90
36134;DHT22;40492;43.524;-1.510;2022-08-03T05:39:17;23.90;99.90
36134;DHT22;40492;43.524;-1.510;2022-08-03T05:41:43;23.90;99.90
36134;DHT22;40492;43.524;-1.510;2022-08-03T05:44:09;23.90;99.90
36134;DHT22;40492;43.524;-1.510;2022-08-03T05:46:35;24.00;99.90
36134;DHT22;40492;43.524;-1.510;2022-08-03T05:49:00;24.00;99.90
36134;DHT22;40492;43.524;-1.510;2022-08-03T05:51:26;24.10;99.90
36134;DHT22;40492;43.524;-1.510;2022-08-03T05:53:53;24.20;99.90
36134;DHT22;40492;43.524;-1.510;2022-08-03T05:56:22;24.30;99.90
36134;DHT22;40492;43.524;-1.510;2022-08-03T05:58:49;24.30;99.90
36134;DHT22;40492;43.524;-1.510;2022-08-03T06:01:16;24.30;99.90
36134;DHT22;40492;43.524;-1.510;2022-08-03T06:03:43;24.40;99.90
36134;DHT22;40492;43.524;-1.510;2022-08-03T06:06:09;24.50;99.90
36134;DHT22;40492;43.524;-1.510;2022-08-03T06:08:35;24.50;99.90
36134;DHT22;40492;43.524;-1.510;2022-08-03T06:11:01;24.50;99.90
36134;DHT22;40492;43.524;-1.510;2022-08-03T06:13:27;24.50;99.90
36134;DHT22;40492;43.524;-1.510;2022-08-03T06:15:54;24.50;99.90
36134;DHT22;40492;43.524;-1.510;2022-08-03T06:18:19;24.50;99.90
36134;DHT22;40492;43.524;-1.510;2022-08-03T06:20:45;24.50;99.90
36134;DHT22;40492;43.524;-1.510;2022-08-03T06:23:11;24.50;99.90
36134;DHT22;40492;43.524;-1.510;2022-08-03T06:25:37;24.60;99.90
36134;DHT22;40492;43.524;-1.510;2022-08-03T06:28:03;24.70;99.90
36134;DHT22;40492;43.524;-1.510;2022-08-03T06:30:29;24.80;99.90
36134;DHT22;40492;43.524;-1.510;2022-08-03T06:32:55;24.90;99.90
36134;DHT22;40492;43.524;-1.510;2022-08-03T06:35:21;25.00;99.90
36134;DHT22;40492;43.524;-1.510;2022-08-03T06:37:47;25.10;99.90
36134;DHT22;40492;43.524;-1.510;2022-08-03T06:40:17;25.20;99.90
36134;DHT22;40492;43.524;-1.510;2022-08-03T06:42:43;25.40;99.90
36134;DHT22;40492;43.524;-1.510;2022-08-03T06:45:09;25.50;99.90
36134;DHT22;40492;43.524;-1.510;2022-08-03T06:47:35;25.60;99.90
36134;DHT22;40492;43.524;-1.510;2022-08-03T06:50:02;25.60;99.90
36134;DHT22;40492;43.524;-1.510;2022-08-03T06:52:28;25.50;99.90
36134;DHT22;40492;43.524;-1.510;2022-08-03T06:54:53;25.50;99.90
36134;DHT22;40492;43.524;-1.510;2022-08-03T06:57:19;25.50;99.90
36134;DHT22;40492;43.524;-1.510;2022-08-03T06:59:45;25.50;99.90
36134;DHT22;40492;43.524;-1.510;2022-08-03T07:02:11;25.50;99.90
36134;DHT22;40492;43.524;-1.510;2022-08-03T07:04:37;25.60;99.90
36134;DHT22;40492;43.524;-1.510;2022-08-03T07:07:02;25.60;99.90
36134;DHT22;40492;43.524;-1.510;2022-08-03T07:09:28;25.50;99.90
36134;DHT22;40492;43.524;-1.510;2022-08-03T07:11:54;25.40;99.90
36134;DHT22;40492;43.524;-1.510;2022-08-03T07:14:21;25.30;99.90
36134;DHT22;40492;43.524;-1.510;2022-08-03T07:16:47;25.30;99.90
36134;DHT22;40492;43.524;-1.510;2022-08-03T07:19:13;25.40;99.90
36134;DHT22;40492;43.524;-1.510;2022-08-03T07:21:42;25.50;99.90
36134;DHT22;40492;43.524;-1.510;2022-08-03T07:24:11;25.70;99.90
36134;DHT22;40492;43.524;-1.510;2022-08-03T07:26:37;25.80;99.90
36134;DHT22;40492;43.524;-1.510;2022-08-03T07:29:03;26.10;99.90
36134;DHT22;40492;43.524;-1.510;2022-08-03T07:31:29;26.10;99.90
36134;DHT22;40492;43.524;-1.510;2022-08-03T07:33:54;26.20;99.90
36134;DHT22;40492;43.524;-1.510;2022-08-03T07:36:21;26.30;99.90
36134;DHT22;40492;43.524;-1.510;2022-08-03T07:38:46;26.20;99.90
36134;DHT22;40492;43.524;-1.510;2022-08-03T07:41:12;26.20;99.90
36134;DHT22;40492;43.524;-1.510;2022-08-03T07:43:38;26.20;99.90
36134;DHT22;40492;43.524;-1.510;2022-08-03T07:46:04;26.20;99.90
36134;DHT22;40492;43.524;-1.510;2022-08-03T07:48:30;26.20;99.90
36134;DHT22;40492;43.524;-1.510;2022-08-03T07:50:55;26.10;99.90
36134;DHT22;40492;43.524;-1.510;2022-08-03T07:53:21;26.00;99.90
36134;DHT22;40492;43.524;-1.510;2022-08-03T07:55:47;26.00;99.90
36134;DHT22;40492;43.524;-1.510;2022-08-03T07:58:13;26.00;99.90
36134;DHT22;40492;43.524;-1.510;2022-08-03T08:00:42;26.00;99.90
36134;DHT22;40492;43.524;-1.510;2022-08-03T08:03:09;26.00;99.90
36134;DHT22;40492;43.524;-1.510;2022-08-03T08:05:35;26.20;99.90
36134;DHT22;40492;43.524;-1.510;2022-08-03T08:08:01;26.10;99.90
36134;DHT22;40492;43.524;-1.510;2022-08-03T08:10:27;26.20;99.90
36134;DHT22;40492;43.524;-1.510;2022-08-03T08:12:53;26.30;99.90
36134;DHT22;40492;43.524;-1.510;2022-08-03T08:15:19;26.30;99.90
36134;DHT22;40492;43.524;-1.510;2022-08-03T08:17:46;26.40;99.90
36134;DHT22;40492;43.524;-1.510;2022-08-03T08:20:14;26.50;99.90
36134;DHT22;40492;43.524;-1.510;2022-08-03T08:22:40;26.60;99.90
36134;DHT22;40492;43.524;-1.510;2022-08-03T08:25:06;26.80;99.90
36134;DHT22;40492;43.524;-1.510;2022-08-03T08:27:32;26.80;99.90
36134;DHT22;40492;43.524;-1.510;2022-08-03T08:29:58;26.90;99.90
36134;DHT22;40492;43.524;-1.510;2022-08-03T08:32:24;26.90;99.90
36134;DHT22;40492;43.524;-1.510;2022-08-03T08:34:50;27.00;99.90
36134;DHT22;40492;43.524;-1.510;2022-08-03T08:37:16;27.00;99.90
36134;DHT22;40492;43.524;-1.510;2022-08-03T08:39:41;27.20;99.90
36134;DHT22;40492;43.524;-1.510;2022-08-03T08:42:08;27.30;99.90
36134;DHT22;40492;43.524;-1.510;2022-08-03T08:44:34;27.40;99.90
36134;DHT22;40492;43.524;-1.510;2022-08-03T08:47:00;27.50;99.90
36134;DHT22;40492;43.524;-1.510;2022-08-03T08:49:27;27.60;99.90
36134;DHT22;40492;43.524;-1.510;2022-08-03T08:51:53;27.60;99.90
36134;DHT22;40492;43.524;-1.510;2022-08-03T08:54:21;27.60;99.90
36134;DHT22;40492;43.524;-1.510;2022-08-03T08:56:50;27.70;99.90
36134;DHT22;40492;43.524;-1.510;2022-08-03T08:59:18;27.70;99.90
36134;DHT22;40492;43.524;-1.510;2022-08-03T09:01:45;27.70;99.90
36134;DHT22;40492;43.524;-1.510;2022-08-03T09:04:10;27.60;99.90
36134;DHT22;40492;43.524;-1.510;2022-08-03T09:06:36;28.00;99.90
36134;DHT22;40492;43.524;-1.510;2022-08-03T09:09:02;28.30;99.90
36134;DHT22;40492;43.524;-1.510;2022-08-03T09:11:28;28.50;99.90
36134;DHT22;40492;43.524;-1.510;2022-08-03T09:13:54;28.80;99.90
36134;DHT22;40492;43.524;-1.510;2022-08-03T09:16:20;29.10;99.90
36134;DHT22;40492;43.524;-1.510;2022-08-03T09:18:50;29.20;99.90
36134;DHT22;40492;43.524;-1.510;2022-08-03T09:21:19;29.60;99.90
36134;DHT22;40492;43.524;-1.510;2022-08-03T09:23:46;30.00;99.90
36134;DHT22;40492;43.524;-1.510;2022-08-03T09:26:18;31.10;99.90
36134;DHT22;40492;43.524;-1.510;2022-08-03T09:28:44;32.40;99.90
36134;DHT22;40492;43.524;-1.510;2022-08-03T09:31:10;33.40;99.90
36134;DHT22;40492;43.524;-1.510;2022-08-03T09:33:48;33.70;99.90
36134;DHT22;40492;43.524;-1.510;2022-08-03T09:36:33;33.00;99.90
36134;DHT22;40492;43.524;-1.510;2022-08-03T09:39:14;32.50;99.90
36134;DHT22;40492;43.524;-1.510;2022-08-03T09:41:40;32.70;99.90
36134;DHT22;40492;43.524;-1.510;2022-08-03T09:44:06;33.80;99.90
36134;DHT22;40492;43.524;-1.510;2022-08-03T09:46:48;34.70;99.90
36134;DHT22;40492;43.524;-1.510;2022-08-03T09:49:14;35.60;99.90
36134;DHT22;40492;43.524;-1.510;2022-08-03T09:51:40;35.20;99.90
36134;DHT22;40492;43.524;-1.510;2022-08-03T09:54:06;35.00;99.90
36134;DHT22;40492;43.524;-1.510;2022-08-03T09:56:39;35.60;99.90
36134;DHT22;40492;43.524;-1.510;2022-08-03T09:59:05;36.40;99.90
36134;DHT22;40492;43.524;-1.510;2022-08-03T10:01:34;37.00;99.90
36134;DHT22;40492;43.524;-1.510;2022-08-03T10:04:00;37.70;99.90
36134;DHT22;40492;43.524;-1.510;2022-08-03T10:06:26;38.00;99.90
36134;DHT22;40492;43.524;-1.510;2022-08-03T10:09:25;38.90;99.90
36134;DHT22;40492;43.524;-1.510;2022-08-03T10:11:44;39.10;99.90
36134;DHT22;40492;43.524;-1.510;2022-08-03T10:14:11;39.90;99.90
36134;DHT22;40492;43.524;-1.510;2022-08-03T10:16:44;41.00;99.00
36134;DHT22;40492;43.524;-1.510;2022-08-03T10:19:10;41.70;96.70
36134;DHT22;40492;43.524;-1.510;2022-08-03T10:21:37;40.80;93.80
36134;DHT22;40492;43.524;-1.510;2022-08-03T10:24:04;41.20;93.60
36134;DHT22;40492;43.524;-1.510;2022-08-03T10:26:31;41.50;92.60
36134;DHT22;40492;43.524;-1.510;2022-08-03T10:28:58;41.70;91.50
36134;DHT22;40492;43.524;-1.510;2022-08-03T10:31:25;42.40;90.40
36134;DHT22;40492;43.524;-1.510;2022-08-03T10:33:55;42.70;86.40
36134;DHT22;40492;43.524;-1.510;2022-08-03T10:36:22;42.90;83.60
36134;DHT22;40492;43.524;-1.510;2022-08-03T10:38:48;43.50;82.70
36134;DHT22;40492;43.524;-1.510;2022-08-03T10:41:20;43.90;79.90
36134;DHT22;40492;43.524;-1.510;2022-08-03T10:44:05;44.10;77.90
36134;DHT22;40492;43.524;-1.510;2022-08-03T10:46:32;44.00;75.30
36134;DHT22;40492;43.524;-1.510;2022-08-03T10:48:59;43.90;74.20
36134;DHT22;40492;43.524;-1.510;2022-08-03T10:51:25;44.10;73.30
36134;DHT22;40492;43.524;-1.510;2022-08-03T10:53:56;44.40;72.50
36134;DHT22;40492;43.524;-1.510;2022-08-03T10:59:19;44.20;69.50
36134;DHT22;40492;43.524;-1.510;2022-08-03T11:02:04;44.40;69.30
36134;DHT22;40492;43.524;-1.510;2022-08-03T11:04:32;44.30;68.20
36134;DHT22;40492;43.524;-1.510;2022-08-03T11:09:46;44.80;67.70
36134;DHT22;40492;43.524;-1.510;2022-08-03T11:14:48;44.70;66.20
36134;DHT22;40492;43.524;-1.510;2022-08-03T11:17:15;44.90;65.10
36134;DHT22;40492;43.524;-1.510;2022-08-03T11:19:45;44.70;64.90
36134;DHT22;40492;43.524;-1.510;2022-08-03T11:22:14;44.90;64.50
36134;DHT22;40492;43.524;-1.510;2022-08-03T11:27:22;44.90;63.00
36134;DHT22;40492;43.524;-1.510;2022-08-03T11:35:06;45.40;62.40
36134;DHT22;40492;43.524;-1.510;2022-08-03T11:37:33;45.40;61.20
36134;DHT22;40492;43.524;-1.510;2022-08-03T11:39:59;45.80;61.40
36134;DHT22;40492;43.524;-1.510;2022-08-03T11:44:52;46.10;59.80
36134;DHT22;40492;43.524;-1.510;2022-08-03T11:47:22;46.30;59.50
36134;DHT22;40492;43.524;-1.510;2022-08-03T11:49:48;46.30;58.80
36134;DHT22;40492;43.524;-1.510;2022-08-03T11:52:15;46.30;58.40
36134;DHT22;40492;43.524;-1.510;2022-08-03T11:54:41;46.50;58.00
36134;DHT22;40492;43.524;-1.510;2022-08-03T11:57:07;46.50;57.40
36134;DHT22;40492;43.524;-1.510;2022-08-03T11:59:33;46.50;57.10
36134;DHT22;40492;43.524;-1.510;2022-08-03T12:02:09;46.50;56.70
36134;DHT22;40492;43.524;-1.510;2022-08-03T12:04:57;46.60;56.50
36134;DHT22;40492;43.524;-1.510;2022-08-03T12:07:24;46.50;56.20
36134;DHT22;40492;43.524;-1.510;2022-08-03T12:10:04;45.60;55.80
36134;DHT22;40492;43.524;-1.510;2022-08-03T12:12:30;45.10;56.80
36134;DHT22;40492;43.524;-1.510;2022-08-03T12:14:56;45.40;57.30
36134;DHT22;40492;43.524;-1.510;2022-08-03T12:17:22;44.60;56.50
36134;DHT22;40492;43.524;-1.510;2022-08-03T12:19:48;42.80;58.20
36134;DHT22;40492;43.524;-1.510;2022-08-03T12:22:14;42.20;60.00
36134;DHT22;40492;43.524;-1.510;2022-08-03T12:24:41;42.80;60.60
36134;DHT22;40492;43.524;-1.510;2022-08-03T12:27:07;42.90;59.50
36134;DHT22;40492;43.524;-1.510;2022-08-03T12:29:33;42.50;60.20
36134;DHT22;40492;43.524;-1.510;2022-08-03T12:31:59;41.80;61.10
36134;DHT22;40492;43.524;-1.510;2022-08-03T12:34:43;40.70;63.00
36134;DHT22;40492;43.524;-1.510;2022-08-03T12:37:09;39.20;65.50
36134;DHT22;40492;43.524;-1.510;2022-08-03T12:39:35;37.70;68.50
36134;DHT22;40492;43.524;-1.510;2022-08-03T12:42:01;36.90;70.80
36134;DHT22;40492;43.524;-1.510;2022-08-03T12:44:33;36.10;72.50
36134;DHT22;40492;43.524;-1.510;2022-08-03T12:46:59;35.30;75.10
36134;DHT22;40492;43.524;-1.510;2022-08-03T12:49:25;34.90;76.20
36134;DHT22;40492;43.524;-1.510;2022-08-03T12:54:21;34.30;78.90
36134;DHT22;40492;43.524;-1.510;2022-08-03T12:56:57;34.00;80.30
36134;DHT22;40492;43.524;-1.510;2022-08-03T12:59:24;33.70;80.90
36134;DHT22;40492;43.524;-1.510;2022-08-03T13:01:51;33.20;82.10
36134;DHT22;40492;43.524;-1.510;2022-08-03T13:04:26;32.80;84.60
36134;DHT22;40492;43.524;-1.510;2022-08-03T13:06:58;32.20;87.20
36134;DHT22;40492;43.524;-1.510;2022-08-03T13:09:23;31.60;89.30
36134;DHT22;40492;43.524;-1.510;2022-08-03T13:14:35;31.30;90.00
36134;DHT22;40492;43.524;-1.510;2022-08-03T13:17:02;31.20;90.50
36134;DHT22;40492;43.524;-1.510;2022-08-03T13:19:28;31.40;90.90
36134;DHT22;40492;43.524;-1.510;2022-08-03T13:21:53;31.40;90.80
36134;DHT22;40492;43.524;-1.510;2022-08-03T13:24:19;31.20;91.90
36134;DHT22;40492;43.524;-1.510;2022-08-03T13:26:45;30.80;92.30
36134;DHT22;40492;43.524;-1.510;2022-08-03T13:29:11;30.60;93.30
36134;DHT22;40492;43.524;-1.510;2022-08-03T13:31:36;30.50;94.00
36134;DHT22;40492;43.524;-1.510;2022-08-03T13:34:02;30.20;94.70
36134;DHT22;40492;43.524;-1.510;2022-08-03T13:36:28;29.90;95.80
36134;DHT22;40492;43.524;-1.510;2022-08-03T13:38:54;29.70;96.50
36134;DHT22;40492;43.524;-1.510;2022-08-03T13:41:20;29.90;97.40
36134;DHT22;40492;43.524;-1.510;2022-08-03T13:43:46;30.30;97.70
36134;DHT22;40492;43.524;-1.510;2022-08-03T13:46:12;30.60;98.00
36134;DHT22;40492;43.524;-1.510;2022-08-03T13:48:38;31.10;97.80
36134;DHT22;40492;43.524;-1.510;2022-08-03T13:51:03;31.10;97.60
36134;DHT22;40492;43.524;-1.510;2022-08-03T13:53:29;30.90;98.10
36134;DHT22;40492;43.524;-1.510;2022-08-03T13:55:55;30.50;99.00
36134;DHT22;40492;43.524;-1.510;2022-08-03T13:58:21;30.50;99.90
36134;DHT22;40492;43.524;-1.510;2022-08-03T14:00:46;30.60;99.90
36134;DHT22;40492;43.524;-1.510;2022-08-03T14:03:12;30.60;99.90
36134;DHT22;40492;43.524;-1.510;2022-08-03T14:05:38;30.50;99.90
36134;DHT22;40492;43.524;-1.510;2022-08-03T14:08:04;30.40;99.90
36134;DHT22;40492;43.524;-1.510;2022-08-03T14:10:38;30.20;99.90
36134;DHT22;40492;43.524;-1.510;2022-08-03T14:13:04;30.30;99.90
36134;DHT22;40492;43.524;-1.510;2022-08-03T14:15:30;30.40;99.90
36134;DHT22;40492;43.524;-1.510;2022-08-03T14:17:56;30.60;99.90
36134;DHT22;40492;43.524;-1.510;2022-08-03T14:20:21;30.90;99.90
36134;DHT22;40492;43.524;-1.510;2022-08-03T14:22:47;31.10;99.90
36134;DHT22;40492;43.524;-1.510;2022-08-03T14:25:13;31.00;99.90
36134;DHT22;40492;43.524;-1.510;2022-08-03T14:27:39;31.10;99.90
36134;DHT22;40492;43.524;-1.510;2022-08-03T14:30:05;31.10;99.90
36134;DHT22;40492;43.524;-1.510;2022-08-03T14:32:30;31.10;99.90
36134;DHT22;40492;43.524;-1.510;2022-08-03T14:34:56;31.00;99.90
36134;DHT22;40492;43.524;-1.510;2022-08-03T14:37:22;31.30;99.90
36134;DHT22;40492;43.524;-1.510;2022-08-03T14:39:48;31.10;99.90
36134;DHT22;40492;43.524;-1.510;2022-08-03T14:42:13;31.10;99.90
36134;DHT22;40492;43.524;-1.510;2022-08-03T14:44:40;30.90;99.90
36134;DHT22;40492;43.524;-1.510;2022-08-03T14:47:05;31.00;99.90
36134;DHT22;40492;43.524;-1.510;2022-08-03T14:49:31;31.20;99.90
36134;DHT22;40492;43.524;-1.510;2022-08-03T14:51:58;31.30;99.90
36134;DHT22;40492;43.524;-1.510;2022-08-03T14:54:23;31.20;99.90
36134;DHT22;40492;43.524;-1.510;2022-08-03T14:56:49;31.30;99.90
36134;DHT22;40492;43.524;-1.510;2022-08-03T14:59:15;31.40;99.90
36134;DHT22;40492;43.524;-1.510;2022-08-03T15:01:41;31.50;99.90
36134;DHT22;40492;43.524;-1.510;2022-08-03T15:04:07;31.50;99.90
36134;DHT22;40492;43.524;-1.510;2022-08-03T15:06:33;31.40;99.90
36134;DHT22;40492;43.524;-1.510;2022-08-03T15:08:59;31.30;99.90
36134;DHT22;40492;43.524;-1.510;2022-08-03T15:11:24;31.50;99.90
36134;DHT22;40492;43.524;-1.510;2022-08-03T15:13:50;31.40;99.90
36134;DHT22;40492;43.524;-1.510;2022-08-03T15:16:16;31.40;99.90
36134;DHT22;40492;43.524;-1.510;2022-08-03T15:18:42;31.40;99.90
36134;DHT22;40492;43.524;-1.510;2022-08-03T15:21:08;31.30;99.90
36134;DHT22;40492;43.524;-1.510;2022-08-03T15:23:33;31.20;99.90
36134;DHT22;40492;43.524;-1.510;2022-08-03T15:25:59;31.20;99.90
36134;DHT22;40492;43.524;-1.510;2022-08-03T15:28:25;31.40;99.90
36134;DHT22;40492;43.524;-1.510;2022-08-03T15:30:51;31.40;99.90
36134;DHT22;40492;43.524;-1.510;2022-08-03T15:33:17;31.30;99.90
36134;DHT22;40492;43.524;-1.510;2022-08-03T15:35:43;31.30;99.90
36134;DHT22;40492;43.524;-1.510;2022-08-03T15:38:10;31.30;99.90
36134;DHT22;40492;43.524;-1.510;2022-08-03T15:40:36;31.30;99.90
36134;DHT22;40492;43.524;-1.510;2022-08-03T15:43:02;31.30;99.90
36134;DHT22;40492;43.524;-1.510;2022-08-03T15:45:28;31.30;99.90
36134;DHT22;40492;43.524;-1.510;2022-08-03T15:47:53;31.40;99.90
36134;DHT22;40492;43.524;-1.510;2022-08-03T15:50:19;31.40;99.90
36134;DHT22;40492;43.524;-1.510;2022-08-03T15:52:45;31.20;99.90